Time;durP1;ratioP1;P1;durP2;ratioP2;P2;SDS_P1;SDS_P2;PMS_P1;PMS_P2;Temp;Humidity;BMP_temperature;BMP_pressure;BME280_temperature;BME280_humidity;BME280_pressure;Samples;Min_cycle;Max_cycle;Signal;HPM_P1;HPM_P2
2023/12/01 00:01:51;;;;;;;181.10;86.90;;;;;;;-2.36;87.86;99014.67;129174;1262;115475;-60
2023/12/01 00:04:53;;;;;;;190.90;89.50;;;;;;;-2.34;87.86;99015.69;129178;1266;114737;-59
2023/12/01 00:07:55;;;;;;;185.60;83.10;;;;;;;-2.32;87.57;99028.92;128950;1270;114922;-60
2023/12/01 00:10:57;;;;;;;173.20;83.80;;;;;;;-2.28;87.83;99028.35;129168;1283;114738;-60
2023/12/01 00:13:59;;;;;;;161.80;79.50;;;;;;;-2.24;87.64;99023.55;129167;1262;114826;-60
2023/12/01 00:17:01;;;;;;;175.70;81.60;;;;;;;-2.19;88.08;99027.30;128966;1262;114918;-60
2023/12/01 00:20:04;;;;;;;170.40;82.80;;;;;;;-2.15;88.40;99028.80;129060;1267;114736;-60
2023/12/01 00:23:06;;;;;;;171.80;84.30;;;;;;;-2.10;88.46;99037.99;129151;1263;115397;-60
2023/12/01 00:26:08;;;;;;;183.00;87.30;;;;;;;-2.06;87.80;99034.08;129193;1267;114752;-60
2023/12/01 00:29:10;;;;;;;180.70;87.40;;;;;;;-2.03;88.05;99031.91;128974;1270;114746;-60
2023/12/01 00:32:12;;;;;;;189.80;89.70;;;;;;;-1.97;88.29;99028.66;129101;1267;115304;-60
2023/12/01 00:35:14;;;;;;;174.90;88.10;;;;;;;-1.92;88.33;99024.71;129313;1267;114797;-60
2023/12/01 00:38:17;;;;;;;188.60;93.90;;;;;;;-1.88;88.51;99019.20;128948;1267;114817;-60
2023/12/01 00:41:19;;;;;;;187.10;90.20;;;;;;;-1.84;88.47;99024.20;129164;1264;114895;-59
2023/12/01 00:44:21;;;;;;;189.00;92.10;;;;;;;-1.79;88.40;99017.46;129179;1264;114842;-60
2023/12/01 00:47:23;;;;;;;181.60;89.90;;;;;;;-1.76;88.63;99010.73;129228;1284;114826;-62
2023/12/01 00:50:25;;;;;;;199.20;91.50;;;;;;;-1.71;88.78;99003.63;129393;1262;115167;-60
2023/12/01 00:53:29;;;;;;;194.10;93.00;;;;;;;-1.67;88.51;98995.52;129305;1265;114999;-60
2023/12/01 00:56:30;;;;;;;200.90;95.40;;;;;;;-1.65;88.18;98993.71;129403;1265;115287;-60
2023/12/01 00:59:33;;;;;;;194.50;95.60;;;;;;;-1.62;88.19;98994.88;129386;1261;115615;-59
2023/12/01 01:02:35;;;;;;;194.50;95.20;;;;;;;-1.61;88.61;98994.67;129082;1283;128494;-60
2023/12/01 01:05:37;;;;;;;196.40;97.80;;;;;;;-1.61;88.25;99007.46;129235;1265;114729;-60
2023/12/01 01:08:39;;;;;;;216.30;103.10;;;;;;;-1.61;88.36;99017.27;129251;1268;114869;-61
2023/12/01 01:11:42;;;;;;;194.80;100.60;;;;;;;-1.60;88.42;99017.43;129129;1269;114753;-60
2023/12/01 01:14:44;;;;;;;196.40;99.40;;;;;;;-1.59;88.65;99017.22;126518;1268;3847426;-60
2023/12/01 01:17:49;;;;;;;191.40;95.10;;;;;;;-1.58;88.46;99010.55;129278;1262;114807;-60
2023/12/01 01:20:51;;;;;;;183.60;94.20;;;;;;;-1.58;88.07;99000.03;129265;1265;114835;-59
2023/12/01 01:23:53;;;;;;;188.80;93.40;;;;;;;-1.61;87.68;98998.00;129200;1279;114756;-60
2023/12/01 01:26:55;;;;;;;174.70;88.80;;;;;;;-1.65;87.94;98991.44;129104;1270;128646;-61
2023/12/01 01:29:57;;;;;;;179.20;91.00;;;;;;;-1.71;87.57;98990.14;129150;1284;114844;-59
2023/12/01 01:32:59;;;;;;;179.40;90.10;;;;;;;-1.76;88.02;98997.27;129178;1264;114784;-59
2023/12/01 01:36:02;;;;;;;183.40;89.50;;;;;;;-1.84;87.27;99005.66;129149;1271;114876;-72
2023/12/01 01:39:05;;;;;;;175.20;86.90;;;;;;;-1.92;87.83;99004.58;129530;1265;114963;-60
2023/12/01 01:42:07;;;;;;;176.10;87.30;;;;;;;-1.99;87.71;99019.77;129118;1262;114849;-60
2023/12/01 01:45:10;;;;;;;181.80;89.40;;;;;;;-2.05;87.37;99026.01;129432;1261;114824;-60
2023/12/01 01:48:12;;;;;;;178.40;86.80;;;;;;;-2.10;87.96;99031.34;129465;1264;115179;-60
2023/12/01 01:51:15;;;;;;;176.10;85.40;;;;;;;-2.12;87.77;99036.28;129012;1261;115558;-61
2023/12/01 01:54:17;;;;;;;174.50;88.10;;;;;;;-2.14;87.64;99036.99;129157;1267;114867;-60
2023/12/01 01:57:19;;;;;;;187.00;92.00;;;;;;;-2.12;88.14;99050.63;129214;1276;114854;-60
2023/12/01 02:00:23;;;;;;;213.10;100.60;;;;;;;-2.12;88.24;99042.21;129319;1284;114732;-60
2023/12/01 02:03:25;;;;;;;199.90;94.40;;;;;;;-2.10;88.55;99039.91;129368;1276;114709;-60
2023/12/01 02:06:30;;;;;;;195.30;94.10;;;;;;;-2.10;87.88;99038.16;129378;1265;114803;-60
2023/12/01 02:09:33;;;;;;;204.70;98.20;;;;;;;-2.09;88.37;99039.20;129230;1262;115140;-60
2023/12/01 02:12:35;;;;;;;234.20;105.50;;;;;;;-2.09;88.33;99037.63;129403;1265;115243;-60
2023/12/01 02:15:37;;;;;;;243.30;108.60;;;;;;;-2.12;88.51;99040.14;129267;1265;114775;-60
2023/12/01 02:18:39;;;;;;;237.40;107.90;;;;;;;-2.15;88.32;99048.94;129130;1264;116449;-60
2023/12/01 02:21:47;;;;;;;227.60;104.70;;;;;;;-2.16;88.14;99056.12;129327;1283;115168;-60
2023/12/01 02:24:50;;;;;;;209.40;96.10;;;;;;;-2.15;88.38;99055.57;129180;1262;127900;-60
2023/12/01 02:27:52;;;;;;;216.30;100.20;;;;;;;-2.14;88.26;99064.65;129283;1262;114748;-60
2023/12/01 02:30:56;;;;;;;230.70;107.20;;;;;;;-2.12;88.54;99066.89;129446;1264;114768;-60
2023/12/01 02:33:58;;;;;;;212.70;99.90;;;;;;;-2.09;89.25;99055.30;129242;1265;114830;-60
2023/12/01 02:37:00;;;;;;;219.30;105.00;;;;;;;-2.06;88.82;99057.69;129468;1277;115146;-60
2023/12/01 02:40:14;;;;;;;214.20;102.70;;;;;;;-2.04;88.74;99065.16;129292;1284;114802;-60
2023/12/01 02:43:19;;;;;;;208.70;99.50;;;;;;;-1.99;88.89;99049.16;129213;1262;128864;-60
2023/12/01 02:46:22;;;;;;;203.10;101.60;;;;;;;-1.94;89.04;99036.65;129245;1262;114988;-60
2023/12/01 02:49:25;;;;;;;208.90;99.90;;;;;;;-1.90;89.55;99027.29;129274;1264;114716;-60
2023/12/01 02:52:27;;;;;;;196.60;98.00;;;;;;;-1.85;89.04;99018.08;129459;1265;114797;-60
2023/12/01 02:55:30;;;;;;;194.10;94.00;;;;;;;-1.79;88.80;99007.30;129331;1283;114932;-60
2023/12/01 02:58:32;;;;;;;194.00;92.20;;;;;;;-1.76;88.59;99007.07;129535;1262;114747;-60
2023/12/01 03:01:34;;;;;;;186.30;92.20;;;;;;;-1.73;88.87;99021.70;129438;1283;129063;-60
2023/12/01 03:04:36;;;;;;;190.20;92.30;;;;;;;-1.67;89.03;99041.37;129366;1265;115424;-60
2023/12/01 03:07:39;;;;;;;181.00;88.30;;;;;;;-1.61;89.29;99056.83;129531;1265;114791;-60
2023/12/01 03:10:41;;;;;;;186.90;91.30;;;;;;;-1.56;89.22;99058.14;129459;1262;114732;-60
2023/12/01 03:13:43;;;;;;;177.90;88.50;;;;;;;-1.51;88.84;99055.92;129510;1265;114752;-60
2023/12/01 03:16:47;;;;;;;182.20;92.10;;;;;;;-1.46;89.09;99043.56;129192;1281;114723;-60
2023/12/01 03:19:51;;;;;;;209.10;96.70;;;;;;;-1.41;89.16;99032.09;129261;1283;115080;-60
2023/12/01 03:22:54;;;;;;;199.10;96.20;;;;;;;-1.37;89.19;99022.19;129172;1264;115197;-60
2023/12/01 03:25:56;;;;;;;164.50;84.00;;;;;;;-1.34;89.41;99023.55;129274;1265;114835;-60
2023/12/01 03:28:58;;;;;;;182.80;87.80;;;;;;;-1.31;89.41;99036.25;129165;1264;114733;-60
2023/12/01 03:32:01;;;;;;;177.50;88.00;;;;;;;-1.31;88.85;99024.86;129295;1265;115353;-60
2023/12/01 03:35:03;;;;;;;175.70;87.10;;;;;;;-1.31;89.08;99012.25;129194;1266;114751;-60
2023/12/01 03:38:05;;;;;;;169.40;86.20;;;;;;;-1.30;88.73;99003.99;129216;1284;114911;-60
2023/12/01 03:41:07;;;;;;;175.10;88.90;;;;;;;-1.29;88.76;99014.66;129388;1265;114876;-60
2023/12/01 03:44:09;;;;;;;170.10;86.90;;;;;;;-1.28;88.81;99034.42;128892;1270;114954;-60
2023/12/01 03:47:11;;;;;;;168.40;86.10;;;;;;;-1.25;89.11;99036.13;129223;1264;114726;-60
2023/12/01 03:50:14;;;;;;;170.10;85.10;;;;;;;-1.26;88.80;99027.90;129353;1263;115102;-61
2023/12/01 03:53:17;;;;;;;174.90;87.90;;;;;;;-1.25;88.67;99043.66;129389;1264;114763;-60
2023/12/01 03:56:19;;;;;;;180.80;89.30;;;;;;;-1.23;88.91;99037.48;129204;1277;114972;-60
2023/12/01 03:59:21;;;;;;;182.60;89.10;;;;;;;-1.22;88.63;99044.11;129529;1265;114850;-60
2023/12/01 04:02:23;;;;;;;174.30;85.60;;;;;;;-1.20;88.88;99052.83;129439;1265;115151;-60
2023/12/01 04:05:26;;;;;;;170.10;83.80;;;;;;;-1.19;88.57;99066.11;129180;1266;115236;-60
2023/12/01 04:08:28;;;;;;;165.80;83.80;;;;;;;-1.18;88.62;99050.51;129347;1265;114729;-60
2023/12/01 04:11:31;;;;;;;159.90;80.10;;;;;;;-1.17;88.45;99052.77;129305;1276;114734;-60
2023/12/01 04:14:33;;;;;;;166.20;84.90;;;;;;;-1.15;88.70;99042.73;129386;1263;114732;-60
2023/12/01 04:17:36;;;;;;;168.30;84.80;;;;;;;-1.13;88.68;99040.08;129335;1265;115883;-60
2023/12/01 04:20:40;;;;;;;185.10;90.40;;;;;;;-1.12;88.58;99037.40;129349;1265;128985;-60
2023/12/01 04:23:43;;;;;;;218.80;101.20;;;;;;;-1.09;88.71;99041.89;129035;1270;115283;-60
2023/12/01 04:26:45;;;;;;;184.70;91.20;;;;;;;-1.05;88.85;99037.61;129214;1265;115229;-61
2023/12/01 04:29:47;;;;;;;181.20;89.60;;;;;;;-1.02;88.81;99046.46;129157;1265;114781;-61
2023/12/01 04:32:53;;;;;;;184.70;93.10;;;;;;;-1.01;88.48;99059.94;129134;1262;114780;-60
2023/12/01 04:35:55;;;;;;;166.70;84.10;;;;;;;-0.99;88.79;99076.20;129092;1284;114807;-60
2023/12/01 04:38:57;;;;;;;177.00;88.70;;;;;;;-0.97;88.75;99059.85;129154;1284;114813;-60
2023/12/01 04:41:59;;;;;;;153.90;79.20;;;;;;;-0.95;88.53;99059.98;129185;1284;115085;-60
2023/12/01 04:45:02;;;;;;;177.20;88.40;;;;;;;-0.98;88.52;99054.96;129029;1265;115194;-60
2023/12/01 04:48:08;;;;;;;173.70;87.30;;;;;;;-0.99;88.36;99061.67;129228;1265;114723;-60
2023/12/01 04:51:10;;;;;;;162.00;83.00;;;;;;;-0.99;88.50;99064.45;129037;1265;115100;-60
2023/12/01 04:54:13;;;;;;;166.90;82.80;;;;;;;-0.99;88.40;99075.16;129346;1263;114745;-60
2023/12/01 04:57:15;;;;;;;168.10;82.60;;;;;;;-1.00;88.69;99080.25;129340;1265;114732;-61
2023/12/01 05:00:22;;;;;;;175.40;90.00;;;;;;;-1.00;88.71;99072.38;129278;1264;114791;-61
2023/12/01 05:03:24;;;;;;;176.70;87.90;;;;;;;-1.00;88.63;99060.64;128949;1263;116547;-60
2023/12/01 05:06:26;;;;;;;194.20;98.20;;;;;;;-1.05;88.31;99068.97;129160;1265;115210;-61
2023/12/01 05:09:28;;;;;;;173.00;83.00;;;;;;;-1.07;88.55;99062.86;129282;1264;115148;-60
2023/12/01 05:12:30;;;;;;;165.20;80.80;;;;;;;-1.10;88.28;99073.63;129175;1264;115213;-60
2023/12/01 05:15:35;;;;;;;175.80;105.40;;;;;;;-1.14;88.30;99077.59;129155;1262;114846;-60
2023/12/01 05:18:37;;;;;;;176.40;88.40;;;;;;;-1.19;88.47;99077.16;129121;1263;115271;-60
2023/12/01 05:21:39;;;;;;;180.20;88.90;;;;;;;-1.22;88.57;99089.98;129154;1267;114716;-60
2023/12/01 05:24:40;;;;;;;180.70;88.50;;;;;;;-1.24;88.44;99090.73;129278;1266;114751;-61
2023/12/01 05:27:50;;;;;;;165.80;84.30;;;;;;;-1.25;88.34;99086.05;128985;1272;114784;-61
2023/12/01 05:30:54;;;;;;;165.60;85.80;;;;;;;-1.25;88.42;99090.05;129206;1263;114916;-61
2023/12/01 05:33:55;;;;;;;164.50;82.70;;;;;;;-1.26;88.28;99084.13;129359;1264;114751;-62
2023/12/01 05:36:57;;;;;;;159.00;79.40;;;;;;;-1.26;88.49;99089.21;129146;1264;115386;-60
2023/12/01 05:40:00;;;;;;;186.30;87.70;;;;;;;-1.29;88.44;99081.91;129285;1264;114800;-60
2023/12/01 05:43:03;;;;;;;165.20;86.30;;;;;;;-1.33;88.60;99084.45;129269;1284;115181;-62
2023/12/01 05:46:06;;;;;;;167.90;88.70;;;;;;;-1.34;88.11;99084.66;129114;1267;114755;-62
2023/12/01 05:49:10;;;;;;;176.00;84.70;;;;;;;-1.36;88.41;99082.77;129245;1264;115361;-60
2023/12/01 05:52:12;;;;;;;176.50;86.80;;;;;;;-1.37;88.83;99085.93;129247;1278;114732;-61
2023/12/01 05:55:17;;;;;;;178.80;87.10;;;;;;;-1.36;88.69;99078.90;129333;1264;114804;-61
2023/12/01 05:58:19;;;;;;;194.60;89.10;;;;;;;-1.38;88.38;99074.91;129290;1262;114908;-62
2023/12/01 06:01:21;;;;;;;191.30;90.90;;;;;;;-1.41;88.45;99071.14;129248;1265;114773;-60
2023/12/01 06:04:23;;;;;;;195.40;91.90;;;;;;;-1.46;88.21;99070.53;129316;1266;114822;-61
2023/12/01 06:07:25;;;;;;;204.00;99.00;;;;;;;-1.50;88.23;99070.80;129229;1262;114801;-61
2023/12/01 06:10:30;;;;;;;205.20;97.30;;;;;;;-1.55;88.18;99078.59;129163;1265;114707;-60
2023/12/01 06:13:32;;;;;;;176.40;88.90;;;;;;;-1.58;87.93;99083.89;129288;1265;128510;-61
2023/12/01 06:16:34;;;;;;;182.20;87.20;;;;;;;-1.60;88.23;99082.02;129217;1280;114921;-60
2023/12/01 06:19:36;;;;;;;175.70;86.40;;;;;;;-1.62;88.30;99077.50;129355;1264;114715;-62
2023/12/01 06:22:38;;;;;;;178.20;86.20;;;;;;;-1.63;88.10;99077.70;129386;1262;114706;-62
2023/12/01 06:25:41;;;;;;;171.60;86.10;;;;;;;-1.64;88.08;99077.38;129325;1265;114792;-61
2023/12/01 06:28:44;;;;;;;173.20;85.60;;;;;;;-1.64;88.47;99079.63;129461;1272;114774;-60
2023/12/01 06:31:46;;;;;;;163.40;79.20;;;;;;;-1.63;88.56;99083.13;129337;1283;114743;-62
2023/12/01 06:34:48;;;;;;;159.00;81.40;;;;;;;-1.64;88.84;99088.58;129391;1283;114865;-61
2023/12/01 06:37:50;;;;;;;170.10;85.60;;;;;;;-1.66;88.53;99087.92;129335;1260;115375;-61
2023/12/01 06:40:52;;;;;;;153.00;77.40;;;;;;;-1.68;88.19;99087.43;129154;1277;115091;-61
2023/12/01 06:43:56;;;;;;;160.40;80.40;;;;;;;-1.70;88.53;99090.23;129415;1283;115182;-61
2023/12/01 06:46:59;;;;;;;154.60;80.60;;;;;;;-1.71;88.22;99097.98;129380;1265;114750;-61
2023/12/01 06:50:02;;;;;;;156.30;80.60;;;;;;;-1.68;88.85;99098.98;129358;1266;114712;-60
2023/12/01 06:53:06;;;;;;;157.70;77.90;;;;;;;-1.64;89.28;99098.38;129475;1265;114794;-60
2023/12/01 06:56:09;;;;;;;165.10;78.20;;;;;;;-1.60;88.79;99099.70;129159;1262;114752;-61
2023/12/01 06:59:11;;;;;;;156.50;78.90;;;;;;;-1.53;89.19;99103.58;129213;1262;115160;-60
2023/12/01 07:02:17;;;;;;;160.20;79.40;;;;;;;-1.47;88.96;99098.56;129095;1277;114887;-60
2023/12/01 07:05:19;;;;;;;161.00;80.30;;;;;;;-1.41;89.23;99098.44;129126;1284;128895;-60
2023/12/01 07:08:21;;;;;;;153.00;82.30;;;;;;;-1.36;89.12;99106.92;129198;1265;115267;-61
2023/12/01 07:11:23;;;;;;;155.90;81.40;;;;;;;-1.32;89.24;99114.90;129159;1268;116564;-60
2023/12/01 07:14:25;;;;;;;166.20;80.90;;;;;;;-1.27;88.98;99108.84;129209;1263;114735;-60
2023/12/01 07:17:29;;;;;;;166.90;84.70;;;;;;;-1.23;89.13;99108.77;129297;1267;114818;-60
2023/12/01 07:20:33;;;;;;;166.80;81.50;;;;;;;-1.19;88.85;99113.77;129266;1261;114734;-61
2023/12/01 07:23:36;;;;;;;141.80;70.10;;;;;;;-1.15;88.69;99113.67;129258;1262;115392;-61
2023/12/01 07:26:38;;;;;;;169.00;87.10;;;;;;;-1.08;88.90;99108.45;129145;1284;115162;-61
2023/12/01 07:29:42;;;;;;;175.10;90.10;;;;;;;-0.98;89.07;99099.83;129368;1266;115185;-60
2023/12/01 07:32:45;;;;;;;166.70;80.00;;;;;;;-0.89;89.05;99108.92;129299;1264;114799;-60
2023/12/01 07:35:47;;;;;;;162.40;83.10;;;;;;;-0.80;88.91;99112.23;129248;1284;114810;-60
2023/12/01 07:38:49;;;;;;;186.60;96.90;;;;;;;-0.71;89.18;99113.95;129297;1265;114889;-60
2023/12/01 07:41:51;;;;;;;189.10;100.70;;;;;;;-0.63;88.94;99114.81;129203;1284;128452;-60
2023/12/01 07:44:53;;;;;;;188.40;101.30;;;;;;;-0.53;89.14;99126.17;129382;1275;114747;-60
2023/12/01 07:47:56;;;;;;;191.70;99.10;;;;;;;-0.41;89.08;99129.40;129383;1264;114735;-60
2023/12/01 07:50:58;;;;;;;196.60;95.30;;;;;;;-0.30;88.86;99125.80;129290;1264;115405;-60
2023/12/01 07:54:00;;;;;;;199.00;98.50;;;;;;;-0.17;88.93;99119.88;129316;1263;115163;-61
2023/12/01 07:57:03;;;;;;;185.90;92.60;;;;;;;-0.05;88.90;99113.24;129344;1265;114739;-60
2023/12/01 08:00:14;;;;;;;169.60;83.60;;;;;;;0.09;88.74;99118.87;129389;1265;114732;-60
2023/12/01 08:03:16;;;;;;;168.50;85.40;;;;;;;0.20;88.78;99118.41;129358;1273;115360;-60
2023/12/01 08:06:18;;;;;;;160.70;80.70;;;;;;;0.37;88.71;99127.10;129448;1265;114692;-60
2023/12/01 08:09:20;;;;;;;133.20;74.40;;;;;;;0.52;88.64;99130.20;129337;1265;114784;-60
2023/12/01 08:12:24;;;;;;;142.10;75.60;;;;;;;0.64;88.27;99136.39;129291;1265;114742;-61
2023/12/01 08:15:26;;;;;;;160.20;83.90;;;;;;;0.77;88.34;99133.90;129294;1265;114722;-61
2023/12/01 08:18:28;;;;;;;158.80;81.50;;;;;;;0.90;88.09;99133.52;129345;1265;115429;-60
2023/12/01 08:21:31;;;;;;;148.20;77.10;;;;;;;1.02;88.03;99145.15;129368;1265;114766;-60
2023/12/01 08:24:33;;;;;;;148.00;79.10;;;;;;;1.16;88.01;99158.97;129165;1270;115291;-60
2023/12/01 08:27:36;;;;;;;135.80;73.90;;;;;;;1.28;87.89;99160.58;129131;1274;114753;-60
2023/12/01 08:30:38;;;;;;;144.40;76.60;;;;;;;1.37;87.50;99156.60;129232;1264;114780;-61
2023/12/01 08:33:40;;;;;;;139.80;73.20;;;;;;;1.38;87.00;99154.29;129099;1265;115112;-60
2023/12/01 08:36:41;;;;;;;137.90;76.00;;;;;;;1.33;86.90;99157.23;129051;1267;114847;-60
2023/12/01 08:39:44;;;;;;;140.60;77.40;;;;;;;1.30;86.64;99152.23;129096;1266;114816;-60
2023/12/01 08:42:46;;;;;;;137.50;75.60;;;;;;;1.31;86.51;99153.80;129278;1273;114826;-60
2023/12/01 08:45:48;;;;;;;140.50;77.70;;;;;;;1.29;86.06;99158.95;129265;1268;114762;-61
2023/12/01 08:48:51;;;;;;;145.20;77.90;;;;;;;1.31;86.64;99166.98;129060;1267;114861;-60
2023/12/01 08:51:55;;;;;;;151.30;81.10;;;;;;;1.34;86.30;99165.65;129299;1265;114738;-61
2023/12/01 08:54:58;;;;;;;139.60;76.90;;;;;;;1.35;85.84;99177.73;129320;1274;115206;-60
2023/12/01 08:58:01;;;;;;;140.70;76.20;;;;;;;1.34;85.72;99184.84;129370;1283;129205;-61
2023/12/01 09:01:04;;;;;;;142.50;77.80;;;;;;;1.31;85.63;99184.02;129412;1281;114749;-60
2023/12/01 09:04:07;;;;;;;135.70;71.00;;;;;;;1.36;85.94;99187.75;129340;1274;114983;-60
2023/12/01 09:07:09;;;;;;;132.60;73.10;;;;;;;1.43;86.14;99188.77;129463;1265;114808;-60
2023/12/01 09:10:11;;;;;;;134.10;69.10;;;;;;;1.52;86.20;99194.30;129580;1265;114715;-60
2023/12/01 09:13:13;;;;;;;131.70;73.00;;;;;;;1.59;86.33;99201.30;129082;1274;114809;-60
2023/12/01 09:16:15;;;;;;;132.20;73.40;;;;;;;1.70;86.37;99207.14;129257;1266;114888;-60
2023/12/01 09:19:17;;;;;;;137.50;72.60;;;;;;;1.81;86.27;99205.40;129469;1272;115287;-60
2023/12/01 09:22:19;;;;;;;128.20;71.30;;;;;;;1.89;85.82;99194.02;129363;1283;115270;-60
2023/12/01 09:25:22;;;;;;;123.70;69.10;;;;;;;2.02;85.72;99195.91;129313;1283;114813;-60
2023/12/01 09:28:25;;;;;;;112.30;66.60;;;;;;;2.19;85.88;99194.15;129439;1265;115285;-60
2023/12/01 09:31:26;;;;;;;116.80;66.90;;;;;;;2.33;85.48;99194.02;129419;1265;114777;-60
2023/12/01 09:34:29;;;;;;;121.10;69.10;;;;;;;2.46;85.39;99197.63;129055;1266;114794;-60
2023/12/01 09:37:31;;;;;;;114.70;67.30;;;;;;;2.65;85.68;99202.47;129373;1265;114795;-60
2023/12/01 09:40:39;;;;;;;122.70;67.70;;;;;;;2.86;85.56;99206.47;129403;1265;114680;-60
2023/12/01 09:43:43;;;;;;;111.90;66.40;;;;;;;2.98;84.88;99206.40;129393;1268;116357;-60
2023/12/01 09:46:47;;;;;;;74.90;42.90;;;;;;;3.07;85.00;99212.61;129327;1264;114812;-59
2023/12/01 09:49:50;;;;;;;100.70;57.40;;;;;;;3.15;84.46;99211.09;128979;1267;114856;-58
2023/12/01 09:52:52;;;;;;;106.20;63.30;;;;;;;3.21;84.38;99205.73;129025;1277;114674;-59
2023/12/01 09:55:54;;;;;;;91.20;55.10;;;;;;;3.28;84.27;99203.02;129152;1284;114832;-59
2023/12/01 09:58:57;;;;;;;86.10;51.10;;;;;;;3.36;84.36;99199.02;129129;1267;114813;-58
2023/12/01 10:01:58;;;;;;;83.60;50.10;;;;;;;3.38;83.08;99186.61;129251;1284;115201;-59
2023/12/01 10:05:01;;;;;;;91.30;51.30;;;;;;;3.36;82.98;99178.55;129245;1265;114801;-59
2023/12/01 10:08:04;;;;;;;94.80;53.30;;;;;;;3.41;83.04;99174.66;129209;1267;114814;-59
2023/12/01 10:11:23;;;;;;;90.30;53.00;;;;;;;3.52;83.08;99171.05;129299;1274;114771;-59
2023/12/01 10:14:25;;;;;;;78.20;45.20;;;;;;;3.68;82.63;99178.77;129049;1284;114979;-59
2023/12/01 10:17:27;;;;;;;84.60;52.00;;;;;;;3.76;82.24;99180.03;129238;1274;114794;-59
2023/12/01 10:20:30;;;;;;;78.70;43.80;;;;;;;3.85;81.90;99188.48;129281;1267;114731;-60
2023/12/01 10:23:33;;;;;;;83.30;48.80;;;;;;;3.86;81.34;99181.39;129381;1261;115192;-59
2023/12/01 10:26:35;;;;;;;88.40;50.00;;;;;;;3.92;81.65;99185.56;129167;1267;114768;-59
2023/12/01 10:29:41;;;;;;;83.80;50.60;;;;;;;3.97;81.72;99184.31;129301;1266;114908;-59
2023/12/01 10:32:43;;;;;;;87.10;51.90;;;;;;;4.02;81.45;99184.98;129317;1274;115428;-59
2023/12/01 10:36:09;;;;;;;91.70;55.80;;;;;;;4.07;81.54;99189.17;129331;1261;114792;-59
2023/12/01 10:39:16;;;;;;;93.30;52.10;;;;;;;4.09;81.03;99184.18;129112;1283;115273;-59
2023/12/01 10:42:18;;;;;;;92.90;54.60;;;;;;;3.98;80.55;99186.72;129391;1265;114777;-59
2023/12/01 10:45:21;;;;;;;89.00;52.30;;;;;;;3.90;80.50;99182.29;129453;1275;114722;-59
2023/12/01 10:48:24;;;;;;;93.60;54.90;;;;;;;3.87;80.41;99176.75;129336;1263;114800;-59
2023/12/01 10:51:27;;;;;;;98.40;56.60;;;;;;;3.83;80.25;99167.21;129156;1276;114882;-59
2023/12/01 10:54:30;;;;;;;98.00;57.10;;;;;;;3.80;80.27;99166.27;129237;1260;114754;-59
2023/12/01 10:57:35;;;;;;;103.90;61.00;;;;;;;3.77;80.15;99167.59;129262;1264;115206;-59
2023/12/01 11:00:37;;;;;;;;;;;;;;;3.76;80.34;99172.76;129134;1269;114917;-60
2023/12/01 11:03:41;;;;;;;102.60;58.80;;;;;;;3.75;80.19;99181.45;129283;1267;114827;-59
2023/12/01 11:07:21;;;;;;;102.50;57.70;;;;;;;3.77;80.60;99183.30;129255;1267;115131;-59
2023/12/01 11:10:53;;;;;;;104.90;60.50;;;;;;;3.74;80.03;99200.91;129111;1283;129041;-59
2023/12/01 11:14:05;;;;;;;110.20;60.60;;;;;;;3.72;80.37;99210.02;129069;1277;115288;-58
2023/12/01 11:17:07;;;;;;;112.20;62.70;;;;;;;3.72;80.48;99213.56;129348;1266;114999;-59
2023/12/01 11:20:33;;;;;;;115.50;62.70;;;;;;;3.68;80.30;99212.13;129336;1267;114775;-59
2023/12/01 11:23:35;;;;;;;99.20;58.00;;;;;;;3.64;80.33;99200.63;129131;1281;114897;-58
2023/12/01 11:26:37;;;;;;;116.20;63.50;;;;;;;3.63;80.33;99196.96;129426;1283;114784;-59
2023/12/01 11:30:07;;;;;;;107.00;64.30;;;;;;;3.67;80.61;99199.64;129418;1274;114725;-59
2023/12/01 11:33:12;;;;;;;104.30;60.70;;;;;;;3.66;80.25;99200.70;129343;1283;115189;-69
2023/12/01 11:36:33;;;;;;;111.30;64.00;;;;;;;3.63;80.07;99194.98;129708;1264;114783;-59
2023/12/01 11:39:36;;;;;;;110.90;63.50;;;;;;;3.56;79.79;99188.04;129414;1275;114729;-59
2023/12/01 11:42:39;;;;;;;111.00;60.40;;;;;;;3.54;79.84;99182.65;129461;1264;114746;-60
2023/12/01 11:45:41;;;;;;;109.20;62.80;;;;;;;3.50;79.35;99186.99;129252;1279;114987;-60
2023/12/01 11:48:43;;;;;;;107.80;62.20;;;;;;;3.46;79.51;99198.31;129490;1283;114845;-60
2023/12/01 11:51:45;;;;;;;108.00;62.10;;;;;;;3.41;79.27;99211.73;129370;1283;114751;-60
2023/12/01 11:54:49;;;;;;;109.90;62.00;;;;;;;3.30;79.44;99217.59;128888;1270;114903;-60
2023/12/01 11:57:54;;;;;;;107.20;60.50;;;;;;;3.21;79.36;99208.95;129508;1264;115193;-61
2023/12/01 12:00:56;;;;;;;109.90;63.30;;;;;;;3.12;79.57;99202.38;128887;1283;114660;-60
2023/12/01 12:03:58;;;;;;;114.60;66.10;;;;;;;3.06;79.53;99202.25;129392;1283;114740;-62
2023/12/01 12:07:00;;;;;;;110.90;63.80;;;;;;;3.03;79.77;99203.05;129347;1283;114736;-62
2023/12/01 12:10:03;;;;;;;111.10;63.50;;;;;;;3.00;79.81;99194.16;129123;1270;115265;-61
2023/12/01 12:13:11;;;;;;;109.50;61.30;;;;;;;2.98;80.00;99193.88;129095;1267;115427;-61
2023/12/01 12:16:13;;;;;;;110.70;64.50;;;;;;;3.01;80.03;99200.67;129100;1264;114784;-60
2023/12/01 12:19:16;;;;;;;112.50;62.90;;;;;;;2.99;79.83;99203.91;129302;1283;114736;-61
2023/12/01 12:22:19;;;;;;;112.70;62.20;;;;;;;2.97;79.68;99208.73;129163;1266;114799;-60
2023/12/01 12:25:22;;;;;;;112.80;65.40;;;;;;;2.92;79.75;99200.80;129235;1284;114742;-60
2023/12/01 12:28:25;;;;;;;108.60;63.00;;;;;;;2.89;79.69;99192.27;129285;1266;114759;-59
2023/12/01 12:31:30;;;;;;;114.90;67.40;;;;;;;2.85;79.54;99193.48;129396;1264;114716;-60
2023/12/01 12:34:32;;;;;;;117.00;64.50;;;;;;;2.79;79.59;99198.10;129253;1274;114757;-61
2023/12/01 12:37:34;;;;;;;120.80;68.70;;;;;;;2.71;79.63;99189.76;129165;1261;114830;-60
2023/12/01 12:40:36;;;;;;;125.40;67.20;;;;;;;2.66;79.86;99188.16;129277;1260;114826;-60
2023/12/01 12:43:41;;;;;;;109.60;65.10;;;;;;;2.64;80.05;99181.70;129323;1280;116417;-59
2023/12/01 12:47:02;;;;;;;121.70;73.30;;;;;;;2.59;79.90;99176.77;129441;1264;114706;-60
2023/12/01 12:50:08;;;;;;;127.70;73.20;;;;;;;2.54;79.93;99174.29;129308;1283;114769;-60
2023/12/01 12:53:11;;;;;;;143.40;78.40;;;;;;;2.47;80.07;99182.65;129246;1264;114710;-60
2023/12/01 12:56:15;;;;;;;159.40;84.30;;;;;;;2.42;80.29;99192.14;129394;1264;115935;-60
2023/12/01 12:59:17;;;;;;;129.30;72.50;;;;;;;2.34;80.22;99188.21;129361;1283;115192;-60
2023/12/01 13:02:19;;;;;;;114.50;64.60;;;;;;;2.26;80.42;99190.04;129309;1264;115229;-60
2023/12/01 13:05:21;;;;;;;117.60;65.40;;;;;;;2.18;80.63;99185.37;129356;1263;115401;-60
2023/12/01 13:08:23;;;;;;;124.60;69.30;;;;;;;2.11;80.89;99192.99;129169;1261;114849;-59
2023/12/01 13:11:27;;;;;;;114.60;66.10;;;;;;;2.07;81.08;99203.16;129500;1264;114744;-60
2023/12/01 13:14:29;;;;;;;104.30;59.40;;;;;;;1.99;81.15;99204.12;126734;1263;3637275;-59
2023/12/01 13:17:31;;;;;;;106.10;56.20;;;;;;;1.89;81.25;99191.94;129448;1264;128834;-59
2023/12/01 13:20:33;;;;;;;122.50;61.80;;;;;;;1.77;81.32;99185.80;129395;1271;114787;-60
2023/12/01 13:23:36;;;;;;;115.60;61.50;;;;;;;1.65;81.75;99193.23;129555;1264;115156;-60
2023/12/01 13:26:38;;;;;;;124.20;66.20;;;;;;;1.57;81.98;99194.34;129375;1265;114726;-60
2023/12/01 13:29:44;;;;;;;126.20;65.30;;;;;;;1.52;81.96;99193.42;129024;1271;116170;-60
2023/12/01 13:32:46;;;;;;;119.50;63.40;;;;;;;1.44;82.17;99198.42;129011;1284;114997;-60
2023/12/01 13:35:48;;;;;;;114.80;62.20;;;;;;;1.35;82.49;99209.77;129200;1284;115400;-60
2023/12/01 13:38:51;;;;;;;130.30;65.80;;;;;;;1.29;82.34;99216.30;129378;1275;114745;-60